createdAt,value
2022-11-07T00:00:09.994Z,14.73
2022-11-07T00:02:58.254Z,14.13
2022-11-07T00:05:26.938Z,21.53
2022-11-07T00:07:55.193Z,16.17
2022-11-07T00:10:23.747Z,17.63
2022-11-07T00:12:53.341Z,21.50
2022-11-07T00:15:21.991Z,14.60
2022-11-07T00:17:50.328Z,16.83
2022-11-07T00:20:18.844Z,15.13
2022-11-07T00:22:47.060Z,17.87
2022-11-07T00:25:16.037Z,20.00
2022-11-07T00:27:44.857Z,14.43
2022-11-07T00:30:15.225Z,17.27
2022-11-07T00:32:43.421Z,18.17
2022-11-07T00:35:12.013Z,13.57
2022-11-07T00:37:40.349Z,15.33
2022-11-07T00:40:10.700Z,15.07
2022-11-07T00:42:39.064Z,18.23
2022-11-07T00:45:08.735Z,17.77
2022-11-07T00:47:38.546Z,10.97
2022-11-07T00:50:08.086Z,16.27
2022-11-07T00:52:36.342Z,19.37
2022-11-07T00:55:05.883Z,16.90
2022-11-07T00:57:34.142Z,14.90
2022-11-07T01:00:02.790Z,21.20
2022-11-07T01:02:31.174Z,21.50
2022-11-07T01:05:12.143Z,16.33
2022-11-07T01:07:41.037Z,16.47
2022-11-07T01:10:10.044Z,15.90
2022-11-07T01:12:38.529Z,21.10
2022-11-07T01:15:08.039Z,19.70
2022-11-07T01:17:36.526Z,18.53
2022-11-07T01:20:08.487Z,18.07
2022-11-07T01:22:37.041Z,15.43
2022-11-07T01:25:06.506Z,20.50
2022-11-07T01:27:35.156Z,19.97
2022-11-07T01:30:04.174Z,19.73
2022-11-07T01:32:32.419Z,22.70
2022-11-07T01:35:01.085Z,15.87
2022-11-07T01:37:30.759Z,21.50
2022-11-07T01:39:59.450Z,20.07
2022-11-07T01:42:28.072Z,18.80
2022-11-07T01:44:59.278Z,17.67
2022-11-07T01:47:32.238Z,18.83
2022-11-07T01:50:02.108Z,17.47
2022-11-07T01:52:35.837Z,16.30
2022-11-07T01:55:09.567Z,18.70
2022-11-07T01:57:41.518Z,22.27
2022-11-07T02:00:13.635Z,20.17
2022-11-07T02:02:42.719Z,21.03
2022-11-07T02:05:14.841Z,13.27
2022-11-07T02:07:45.386Z,20.30
2022-11-07T02:10:15.470Z,18.40
2022-11-07T02:12:44.897Z,15.60
2022-11-07T02:15:13.667Z,21.43
2022-11-07T02:17:42.167Z,20.00
2022-11-07T02:20:12.385Z,19.20
2022-11-07T02:22:47.612Z,16.67
2022-11-07T02:25:19.618Z,17.17
2022-11-07T02:27:50.926Z,19.20
2022-11-07T02:30:23.165Z,21.53
2022-11-07T02:32:51.988Z,18.03
2022-11-07T02:35:38.467Z,12.73
2022-11-07T02:38:12.243Z,21.20
2022-11-07T02:40:44.409Z,24.93
2022-11-07T02:43:14.775Z,14.33
2022-11-07T02:45:46.841Z,17.97
2022-11-07T02:48:15.221Z,19.40
2022-11-07T02:50:43.935Z,18.77
2022-11-07T02:53:12.632Z,14.90
2022-11-07T02:55:42.867Z,22.07
2022-11-07T02:58:11.052Z,19.10
2022-11-07T03:00:39.820Z,21.77
2022-11-07T03:03:08.281Z,17.23
2022-11-07T03:05:36.791Z,16.63
2022-11-07T03:08:05.442Z,17.40
2022-11-07T03:10:34.085Z,12.67
2022-11-07T03:13:04.299Z,16.63
2022-11-07T03:15:32.960Z,21.80
2022-11-07T03:18:01.275Z,18.87
2022-11-07T03:20:30.106Z,20.80
2022-11-07T03:22:58.394Z,14.73
2022-11-07T03:25:27.067Z,19.70
2022-11-07T03:27:55.466Z,16.20
2022-11-07T03:30:25.770Z,22.13
2022-11-07T03:32:54.421Z,25.17
2022-11-07T03:35:23.787Z,20.53
2022-11-07T03:37:52.142Z,18.53
2022-11-07T03:40:21.031Z,19.03
2022-11-07T03:42:49.530Z,20.37
2022-11-07T03:45:18.719Z,20.17
2022-11-07T03:47:48.523Z,15.33
2022-11-07T03:50:18.761Z,20.10
2022-11-07T03:52:47.578Z,17.40
2022-11-07T03:55:18.330Z,16.10
2022-11-07T03:57:47.796Z,22.00
2022-11-07T04:00:17.913Z,13.87
2022-11-07T04:02:46.569Z,15.70
2022-11-07T04:05:16.705Z,16.03
2022-11-07T04:07:45.094Z,18.97
2022-11-07T04:10:13.658Z,15.73
2022-11-07T04:12:59.386Z,17.30
2022-11-07T04:15:45.701Z,20.60
2022-11-07T04:18:13.958Z,18.80
2022-11-07T04:20:43.902Z,17.90
2022-11-07T04:23:12.450Z,20.87
2022-11-07T04:25:58.553Z,19.80
2022-11-07T04:28:26.884Z,17.63
2022-11-07T04:30:55.834Z,29.03
2022-11-07T04:33:24.377Z,18.50
2022-11-07T04:35:54.294Z,18.63
2022-11-07T04:38:22.630Z,18.47
2022-11-07T04:40:55.482Z,14.60
2022-11-07T04:43:24.534Z,22.53
2022-11-07T04:45:53.277Z,18.87
2022-11-07T04:48:21.759Z,16.57
2022-11-07T04:50:51.050Z,19.37
2022-11-07T04:53:20.781Z,15.73
2022-11-07T04:55:49.490Z,16.47
2022-11-07T04:58:17.708Z,16.63
2022-11-07T05:00:46.310Z,21.77
2022-11-07T05:03:15.068Z,23.17
2022-11-07T05:05:43.888Z,17.10
2022-11-07T05:08:12.319Z,29.93
2022-11-07T05:10:42.949Z,24.73
2022-11-07T05:13:11.356Z,21.90
2022-11-07T05:15:40.266Z,26.47
2022-11-07T05:18:08.482Z,29.43
2022-11-07T05:20:39.264Z,23.40
2022-11-07T05:23:13.577Z,24.23
2022-11-07T05:25:45.134Z,19.33
2022-11-07T05:28:14.493Z,23.50
2022-11-07T05:30:45.254Z,23.23
2022-11-07T05:33:15.238Z,23.77
2022-11-07T05:35:44.406Z,24.70
2022-11-07T05:38:12.764Z,24.10
2022-11-07T05:40:43.428Z,28.93
2022-11-07T05:43:14.403Z,32.83
2022-11-07T05:45:43.409Z,25.30
2022-11-07T05:48:14.047Z,29.87
2022-11-07T05:50:42.803Z,30.90
2022-11-07T05:53:11.220Z,26.30
2022-11-07T05:55:40.123Z,28.37
2022-11-07T05:58:13.370Z,23.40
2022-11-07T06:00:42.679Z,28.50
2022-11-07T06:03:11.769Z,33.47
2022-11-07T06:05:41.199Z,32.03
2022-11-07T06:08:12.308Z,24.83
2022-11-07T06:10:42.213Z,33.87
2022-11-07T06:13:14.835Z,36.57
2022-11-07T06:15:46.028Z,24.07
2022-11-07T06:18:16.903Z,30.60
2022-11-07T06:20:45.977Z,26.60
2022-11-07T06:23:15.278Z,26.77
2022-11-07T06:25:44.544Z,28.97
2022-11-07T06:28:16.088Z,31.63
2022-11-07T06:30:45.654Z,27.47
2022-11-07T06:33:16.773Z,27.20
2022-11-07T06:35:46.683Z,24.33
2022-11-07T06:38:16.471Z,27.63
2022-11-07T06:40:45.653Z,29.37
2022-11-07T06:43:18.395Z,34.47
2022-11-07T06:45:48.995Z,31.23
2022-11-07T06:48:18.429Z,25.33
2022-11-07T06:50:47.115Z,23.40
2022-11-07T06:53:16.219Z,24.58
2022-11-07T06:55:45.096Z,25.57
2022-11-07T06:58:13.376Z,27.63
2022-11-07T07:00:43.489Z,26.17
2022-11-07T07:03:13.279Z,23.90
2022-11-07T07:05:42.587Z,25.47
2022-11-07T07:08:12.911Z,22.00
2022-11-07T07:10:44.732Z,28.55
2022-11-07T07:13:14.665Z,23.17
2022-11-07T07:15:53.139Z,24.93
2022-11-07T07:18:22.475Z,26.30
2022-11-07T07:20:52.234Z,23.40
2022-11-07T07:23:21.954Z,25.13
2022-11-07T07:25:52.991Z,25.00
2022-11-07T07:28:21.255Z,27.03
2022-11-07T07:30:54.325Z,25.77
2022-11-07T07:33:23.184Z,25.17
2022-11-07T07:35:51.830Z,30.43
2022-11-07T07:38:20.464Z,28.30
2022-11-07T07:40:49.295Z,24.67
2022-11-07T07:43:18.103Z,23.40
2022-11-07T07:45:47.047Z,24.40
2022-11-07T07:48:16.805Z,23.35
2022-11-07T07:50:45.369Z,28.13
2022-11-07T07:53:13.692Z,20.80
2022-11-07T07:55:42.438Z,32.33
2022-11-07T07:58:11.143Z,26.83
2022-11-07T08:00:41.268Z,23.50
2022-11-07T08:03:11.598Z,30.60
2022-11-07T08:05:41.646Z,25.42
2022-11-07T08:08:10.498Z,21.08
2022-11-07T08:10:43.282Z,23.47
2022-11-07T08:13:11.966Z,30.42
2022-11-07T08:15:40.698Z,29.80
2022-11-07T08:18:08.991Z,19.45
2022-11-07T08:20:37.816Z,21.92
2022-11-07T08:23:14.786Z,24.13
2022-11-07T08:25:49.824Z,24.10
2022-11-07T08:28:18.628Z,34.60
2022-11-07T08:30:48.231Z,36.95
2022-11-07T08:33:17.396Z,30.20
2022-11-07T08:35:46.273Z,33.15
2022-11-07T08:38:15.928Z,27.48
2022-11-07T08:40:44.710Z,31.90
2022-11-07T08:43:13.043Z,31.95
2022-11-07T08:45:41.748Z,26.10
2022-11-07T08:48:10.441Z,29.92
2022-11-07T08:50:39.040Z,31.48
2022-11-07T08:53:07.942Z,32.63
2022-11-07T08:55:37.989Z,30.73
2022-11-07T08:58:09.324Z,26.55
2022-11-07T09:00:38.601Z,27.80
2022-11-07T09:03:38.760Z,35.13
2022-11-07T09:05:58.507Z,32.08
2022-11-07T09:08:27.192Z,30.42
2022-11-07T09:10:57.187Z,25.75
2022-11-07T09:13:25.769Z,30.35
2022-11-07T09:15:58.106Z,43.40
2022-11-07T09:18:27.013Z,29.52
2022-11-07T09:20:55.978Z,28.77
2022-11-07T09:23:24.183Z,29.63
2022-11-07T09:25:52.911Z,30.25
2022-11-07T09:28:22.605Z,30.98
2022-11-07T09:30:55.089Z,30.38
2022-11-07T09:33:24.561Z,32.45
2022-11-07T09:35:53.625Z,24.98
2022-11-07T09:38:22.212Z,27.30
2022-11-07T09:40:57.418Z,28.85
2022-11-07T09:43:39.786Z,32.30
2022-11-07T09:46:23.976Z,23.65
2022-11-07T09:48:57.167Z,26.80
2022-11-07T09:51:33.798Z,17.67
2022-11-07T09:54:07.268Z,25.50
2022-11-07T09:56:36.481Z,18.23
2022-11-07T09:59:14.615Z,20.90
2022-11-07T10:01:43.684Z,23.52
2022-11-07T10:04:26.686Z,13.85
2022-11-07T10:07:02.432Z,16.27
2022-11-07T10:09:39.488Z,22.75
2022-11-07T10:12:22.091Z,18.88
2022-11-07T10:15:01.852Z,14.95
2022-11-07T10:17:36.992Z,23.27
2022-11-07T10:20:14.101Z,16.35
2022-11-07T10:22:54.320Z,16.98
2022-11-07T10:25:30.142Z,15.65
2022-11-07T10:28:13.497Z,18.40
2022-11-07T10:30:44.591Z,20.73
2022-11-07T10:33:23.914Z,15.32
2022-11-07T10:35:57.601Z,18.17
2022-11-07T10:38:28.575Z,18.73
2022-11-07T10:40:57.466Z,18.73
2022-11-07T10:43:34.154Z,19.02
2022-11-07T10:46:06.693Z,20.15
2022-11-07T10:48:36.070Z,18.67
2022-11-07T10:51:04.430Z,22.42
2022-11-07T10:53:33.130Z,13.77
2022-11-07T10:56:01.510Z,12.65
2022-11-07T10:58:35.753Z,14.10
2022-11-07T11:01:07.650Z,18.27
2022-11-07T11:03:44.914Z,13.60
2022-11-07T11:06:24.261Z,19.88
2022-11-07T11:08:53.970Z,12.27
2022-11-07T11:11:34.763Z,14.00
2022-11-07T11:14:08.420Z,13.80
2022-11-07T11:16:41.348Z,20.95
2022-11-07T11:19:21.021Z,19.77
2022-11-07T11:21:51.672Z,12.82
2022-11-07T11:24:37.602Z,11.70
2022-11-07T11:27:15.689Z,14.63
2022-11-07T11:29:53.622Z,13.13
2022-11-07T11:32:31.787Z,14.48
2022-11-07T11:35:09.254Z,12.52
2022-11-07T11:37:42.718Z,12.93
2022-11-07T11:40:19.783Z,14.20
2022-11-07T11:42:54.056Z,17.83
2022-11-07T11:45:32.270Z,9.30
2022-11-07T11:48:11.545Z,11.82
2022-11-07T11:50:45.612Z,9.40
2022-11-07T11:53:18.063Z,9.15
2022-11-07T11:55:55.313Z,9.55
2022-11-07T11:58:42.299Z,8.82
2022-11-07T12:01:23.032Z,6.97
2022-11-07T12:04:22.186Z,12.80
2022-11-07T12:06:55.978Z,15.88
2022-11-07T12:09:34.080Z,7.00
2022-11-07T12:12:20.643Z,11.45
2022-11-07T12:15:14.769Z,11.55
2022-11-07T12:17:49.380Z,10.65
2022-11-07T12:20:23.346Z,7.88
2022-11-07T12:23:04.828Z,10.02
2022-11-07T12:25:47.396Z,10.52
2022-11-07T12:28:32.997Z,10.18
2022-11-07T12:31:12.441Z,9.43
2022-11-07T12:33:47.810Z,5.90
2022-11-07T12:36:34.086Z,15.35
2022-11-07T12:39:22.841Z,11.13
2022-11-07T12:41:58.601Z,9.43
2022-11-07T12:44:45.502Z,10.35
2022-11-07T12:47:28.515Z,9.48
2022-11-07T12:50:06.960Z,8.52
2022-11-07T12:52:45.268Z,13.38
2022-11-07T12:55:22.449Z,9.13
2022-11-07T12:57:54.929Z,9.35
2022-11-07T13:00:29.616Z,7.05
2022-11-07T13:03:43.956Z,8.60
2022-11-07T13:06:17.927Z,8.20
2022-11-07T13:08:55.169Z,7.45
2022-11-07T13:11:31.252Z,9.73
2022-11-07T13:14:23.736Z,8.43
2022-11-07T13:16:55.323Z,6.95
2022-11-07T13:19:33.142Z,10.05
2022-11-07T13:22:05.242Z,9.68
2022-11-07T13:24:36.488Z,6.95
2022-11-07T13:27:16.817Z,6.18
2022-11-07T13:29:46.662Z,6.43
2022-11-07T13:32:17.057Z,11.18
2022-11-07T13:34:50.832Z,7.38
2022-11-07T13:37:22.629Z,7.88
2022-11-07T13:39:55.884Z,6.22
2022-11-07T13:42:27.998Z,5.45
2022-11-07T13:45:03.695Z,12.90
2022-11-07T13:47:40.234Z,6.53
2022-11-07T13:50:17.977Z,9.45
2022-11-07T13:52:56.222Z,8.93
2022-11-07T13:55:30.145Z,5.13
2022-11-07T13:58:05.154Z,8.63
2022-11-07T14:00:35.809Z,7.15
2022-11-07T14:03:04.869Z,9.63
2022-11-07T14:05:36.701Z,11.57
2022-11-07T14:08:07.404Z,5.97
2022-11-07T14:10:40.610Z,6.57
2022-11-07T14:13:11.786Z,7.25
2022-11-07T14:15:49.584Z,7.00
2022-11-07T14:18:19.823Z,8.45
2022-11-07T14:20:49.534Z,5.28
2022-11-07T14:23:22.645Z,4.88
2022-11-07T14:25:59.926Z,7.72
2022-11-07T14:28:35.900Z,7.07
2022-11-07T14:31:10.708Z,6.35
2022-11-07T14:33:39.534Z,6.50
2022-11-07T14:36:08.116Z,8.48
2022-11-07T14:38:36.833Z,16.92
2022-11-07T14:41:05.253Z,7.13
2022-11-07T14:43:35.691Z,7.65
2022-11-07T14:46:13.661Z,7.38
2022-11-07T14:48:45.057Z,6.55
2022-11-07T14:51:15.978Z,5.45
2022-11-07T14:53:54.399Z,9.90
2022-11-07T14:56:26.712Z,6.20
2022-11-07T14:58:55.544Z,6.85
2022-11-07T15:01:30.938Z,5.70
2022-11-07T15:04:02.937Z,8.90
2022-11-07T15:06:34.557Z,7.25
2022-11-07T15:09:05.362Z,9.85
2022-11-07T15:11:36.299Z,7.57
2022-11-07T15:14:07.840Z,9.93
2022-11-07T15:16:40.406Z,13.00
2022-11-07T15:19:11.196Z,10.25
2022-11-07T15:21:51.870Z,10.52
2022-11-07T15:24:36.440Z,10.85
2022-11-07T15:27:07.310Z,13.23
2022-11-07T15:29:37.448Z,11.05
2022-11-07T15:32:15.342Z,12.65
2022-11-07T15:37:32.443Z,13.43
2022-11-07T15:40:01.410Z,12.70
2022-11-07T15:42:30.423Z,20.20
2022-11-07T15:44:59.116Z,13.25
2022-11-07T15:47:29.047Z,16.15
2022-11-07T15:49:58.071Z,16.02
2022-11-07T15:52:26.791Z,13.55
2022-11-07T15:54:55.531Z,15.13
2022-11-07T15:57:23.896Z,11.10
2022-11-07T15:59:52.488Z,15.52
2022-11-07T16:02:20.937Z,11.32
2022-11-07T16:04:50.893Z,13.90
2022-11-07T16:07:21.468Z,13.85
2022-11-07T16:09:50.433Z,12.85
2022-11-07T16:12:20.007Z,9.02
2022-11-07T16:14:48.637Z,19.80
2022-11-07T16:17:18.360Z,13.32
2022-11-07T16:19:47.985Z,8.55
2022-11-07T16:22:17.992Z,12.35
2022-11-07T16:24:46.495Z,12.27
2022-11-07T16:27:18.358Z,9.85
2022-11-07T16:29:47.206Z,11.90
2022-11-07T16:32:18.368Z,8.23
2022-11-07T16:34:47.973Z,8.63
2022-11-07T16:37:17.702Z,10.95
2022-11-07T16:39:46.578Z,11.60
2022-11-07T16:42:16.270Z,14.35
2022-11-07T16:44:44.959Z,11.90
2022-11-07T16:47:15.742Z,7.43
2022-11-07T16:49:49.076Z,9.80
2022-11-07T16:52:21.004Z,15.38
2022-11-07T16:54:49.592Z,6.57
2022-11-07T16:57:19.261Z,9.93
2022-11-07T16:59:48.070Z,10.93
2022-11-07T17:02:21.099Z,10.88
2022-11-07T17:04:51.159Z,13.30
2022-11-07T17:07:23.859Z,11.93
2022-11-07T17:09:53.997Z,10.45
2022-11-07T17:12:24.429Z,11.45
2022-11-07T17:14:54.025Z,10.00
2022-11-07T17:17:22.793Z,11.00
2022-11-07T17:19:51.357Z,13.95
2022-11-07T17:22:21.188Z,12.75
2022-11-07T17:24:49.871Z,16.10
2022-11-07T17:27:23.892Z,14.68
2022-11-07T17:29:53.478Z,19.63
2022-11-07T17:32:22.308Z,7.22
2022-11-07T17:35:17.687Z,13.98
2022-11-07T17:37:40.659Z,16.23
2022-11-07T17:40:16.796Z,12.00
2022-11-07T17:42:45.141Z,9.40
2022-11-07T17:45:13.678Z,10.07
2022-11-07T17:47:41.976Z,12.60
2022-11-07T17:50:15.761Z,24.33
2022-11-07T17:52:45.680Z,14.43
2022-11-07T17:55:14.872Z,9.68
2022-11-07T17:57:44.573Z,9.45
2022-11-07T18:00:17.827Z,9.15
2022-11-07T18:02:46.686Z,11.88
2022-11-07T18:05:16.399Z,7.50
2022-11-07T18:07:47.088Z,12.80
2022-11-07T18:10:17.256Z,14.50
2022-11-07T18:12:45.900Z,15.95
2022-11-07T18:15:14.669Z,11.38
2022-11-07T18:17:43.520Z,10.13
2022-11-07T18:20:12.357Z,9.00
2022-11-07T18:22:40.571Z,14.63
2022-11-07T18:25:10.830Z,7.15
2022-11-07T18:27:39.167Z,9.35
2022-11-07T18:30:08.975Z,8.82
2022-11-07T18:32:37.282Z,11.93
2022-11-07T18:35:06.658Z,4.68
2022-11-07T18:37:34.933Z,6.35
2022-11-07T18:40:03.904Z,10.15
2022-11-07T18:42:33.601Z,9.07
2022-11-07T18:45:02.393Z,10.90
2022-11-07T18:47:30.979Z,8.88
2022-11-07T18:49:59.706Z,9.38
2022-11-07T18:52:30.650Z,10.88
2022-11-07T18:54:59.414Z,10.48
2022-11-07T18:57:27.791Z,9.63
2022-11-07T18:59:57.839Z,9.80
2022-11-07T19:02:27.597Z,9.10
2022-11-07T19:04:56.135Z,7.00
2022-11-07T19:07:24.468Z,14.25
2022-11-07T19:09:53.037Z,11.77
2022-11-07T19:12:21.348Z,7.65
2022-11-07T19:14:49.936Z,11.82
2022-11-07T19:17:19.603Z,11.30
2022-11-07T19:19:48.216Z,8.63
2022-11-07T19:22:17.132Z,9.23
2022-11-07T19:24:46.618Z,5.97
2022-11-07T19:27:14.999Z,12.05
2022-11-07T19:29:43.719Z,8.90
2022-11-07T19:32:12.351Z,9.00
2022-11-07T19:34:42.770Z,8.73
2022-11-07T19:37:11.498Z,9.73
2022-11-07T19:39:40.356Z,12.27
2022-11-07T19:42:08.748Z,12.20
2022-11-07T19:44:37.905Z,9.65
2022-11-07T19:47:08.265Z,10.57
2022-11-07T19:49:36.776Z,11.30
2022-11-07T19:52:07.022Z,13.60
2022-11-07T19:54:36.067Z,12.60
2022-11-07T19:57:05.051Z,12.07
2022-11-07T19:59:33.963Z,8.65
2022-11-07T20:02:31.215Z,14.70
2022-11-07T20:04:50.948Z,13.60
2022-11-07T20:07:20.727Z,8.90
2022-11-07T20:09:49.384Z,14.07
2022-11-07T20:12:17.962Z,9.43
2022-11-07T20:14:46.681Z,13.65
2022-11-07T20:17:15.046Z,14.93
2022-11-07T20:19:43.799Z,9.88
2022-11-07T20:22:13.885Z,12.57
2022-11-07T20:24:43.879Z,14.05
2022-11-07T20:27:12.152Z,10.82
2022-11-07T20:29:40.736Z,13.05
2022-11-07T20:32:09.442Z,11.88
2022-11-07T20:34:38.107Z,12.00
2022-11-07T20:37:07.428Z,13.63
2022-11-07T20:39:36.312Z,18.42
2022-11-07T20:42:06.425Z,13.25
2022-11-07T20:44:35.171Z,23.30
2022-11-07T20:47:03.891Z,12.27
2022-11-07T20:49:32.549Z,11.80
2022-11-07T20:52:01.455Z,10.27
2022-11-07T20:54:30.794Z,12.77
2022-11-07T20:56:59.464Z,10.73
2022-11-07T20:59:29.614Z,11.55
2022-11-07T21:02:03.159Z,12.07
2022-11-07T21:04:49.798Z,15.23
2022-11-07T21:07:23.671Z,12.73
2022-11-07T21:09:52.613Z,9.25
2022-11-07T21:12:21.063Z,10.05
2022-11-07T21:14:51.425Z,13.30
2022-11-07T21:17:20.368Z,21.23
2022-11-07T21:19:48.914Z,13.20
2022-11-07T21:22:17.414Z,13.38
2022-11-07T21:24:47.112Z,14.50
2022-11-07T21:27:15.401Z,12.55
2022-11-07T21:29:44.047Z,15.25
2022-11-07T21:32:14.017Z,11.50
2022-11-07T21:34:42.806Z,15.27
2022-11-07T21:37:11.400Z,18.00
2022-11-07T21:39:39.970Z,10.85
2022-11-07T21:42:08.322Z,8.75
2022-11-07T21:44:36.828Z,12.55
2022-11-07T21:47:05.146Z,13.38
2022-11-07T21:49:35.240Z,9.05
2022-11-07T21:52:03.831Z,12.15
2022-11-07T21:54:32.371Z,12.88
2022-11-07T21:57:01.361Z,12.27
2022-11-07T21:59:29.977Z,11.00
2022-11-07T22:01:58.577Z,13.50
2022-11-07T22:04:27.526Z,13.73
2022-11-07T22:06:57.636Z,13.90
2022-11-07T22:09:26.653Z,14.10
2022-11-07T22:11:54.959Z,11.85
2022-11-07T22:14:24.142Z,13.63
2022-11-07T22:16:52.650Z,17.42
2022-11-07T22:19:21.688Z,9.38
2022-11-07T22:21:50.588Z,14.98
2022-11-07T22:24:20.636Z,12.73
2022-11-07T22:26:48.809Z,10.60
2022-11-07T22:29:17.447Z,12.00
2022-11-07T22:31:45.806Z,12.63
2022-11-07T22:34:14.829Z,8.05
2022-11-07T22:36:43.710Z,12.63
2022-11-07T22:39:12.681Z,19.60
2022-11-07T22:41:42.417Z,9.05
2022-11-07T22:44:11.085Z,14.27
2022-11-07T22:46:39.635Z,10.35
2022-11-07T22:49:08.282Z,10.35
2022-11-07T22:51:37.045Z,12.05
2022-11-07T22:54:08.148Z,10.07
2022-11-07T22:56:37.981Z,8.80
2022-11-07T22:59:08.727Z,13.10
2022-11-07T23:01:39.611Z,10.25
2022-11-07T23:04:09.308Z,18.52
2022-11-07T23:06:37.612Z,10.68
2022-11-07T23:09:06.226Z,9.93
2022-11-07T23:11:51.607Z,11.57
2022-11-07T23:14:25.581Z,9.95
2022-11-07T23:16:56.094Z,6.85
2022-11-07T23:19:26.690Z,9.90
2022-11-07T23:21:56.764Z,14.90
2022-11-07T23:24:25.568Z,12.98
2022-11-07T23:26:53.778Z,16.30
2022-11-07T23:29:25.421Z,11.27
2022-11-07T23:31:54.111Z,13.45
2022-11-07T23:34:23.280Z,9.88
2022-11-07T23:36:52.718Z,11.68
2022-11-07T23:39:23.524Z,14.02
2022-11-07T23:41:51.940Z,16.38
2022-11-07T23:44:20.506Z,11.20
2022-11-07T23:47:07.805Z,15.10
2022-11-07T23:49:53.998Z,11.13
2022-11-07T23:52:22.325Z,10.90
2022-11-07T23:55:08.430Z,10.43
2022-11-07T23:57:58.147Z,8.30
